Time,TemperatureF,DewpointF,PressureIn,WindDirection,WindDirectionDegrees,WindSpeedMPH,WindSpeedGustMPH,Humidity,HourlyPrecipIn,Conditions,Clouds,dailyrainin,SoftwareType,DateUTC
2013-01-01 00:13:00,34.0,31.0,30.20,West,263,0.0,0.0,89,0.00,,,0.00,weatherlink.com 1.10,2013-01-01 08:13:00,
2013-01-01 00:28:00,33.5,30.0,30.20,West,263,0.0,0.0,88,0.00,,,0.00,weatherlink.com 1.10,2013-01-01 08:28:00,
2013-01-01 00:43:00,32.4,30.0,30.20,West,262,0.0,0.0,89,0.00,,,0.00,weatherlink.com 1.10,2013-01-01 08:43:00,
2013-01-01 00:58:00,32.7,30.0,30.20,West,263,0.0,0.0,91,0.00,,,0.00,weatherlink.com 1.10,2013-01-01 08:58:00,
2013-01-01 01:13:00,33.2,30.0,30.20,West,263,0.0,0.0,88,0.00,,,0.00,weatherlink.com 1.10,2013-01-01 09:13:00,
2013-01-01 01:28:00,32.5,29.0,30.20,West,262,0.0,0.0,88,0.00,,,0.00,weatherlink.com 1.10,2013-01-01 09:28:00,
2013-01-01 01:43:00,32.3,30.0,30.21,West,262,0.0,0.0,89,0.00,,,0.00,weatherlink.com 1.10,2013-01-01 09:43:00,
2013-01-01 01:58:00,32.4,30.0,30.21,West,263,0.0,0.0,89,0.00,,,0.00,weatherlink.com 1.10,2013-01-01 09:58:00,
2013-01-01 02:14:00,31.9,29.0,30.22,West,263,0.0,0.0,88,0.00,,,0.00,weatherlink.com 1.10,2013-01-01 10:14:00,
2013-01-01 02:29:00,31.1,28.0,30.22,West,263,0.0,0.0,88,0.00,,,0.00,weatherlink.com 1.10,2013-01-01 10:29:00,
2013-01-01 02:44:00,31.8,28.0,30.22,SE,125,1.0,3.0,86,0.00,,,0.00,weatherlink.com 1.10,2013-01-01 10:44:00,
2013-01-01 02:59:00,31.6,28.0,30.22,WSW,250,0.0,1.0,85,0.00,,,0.00,weatherlink.com 1.10,2013-01-01 10:59:00,
2013-01-01 03:14:00,31.0,27.0,30.22,SE,129,1.0,1.0,85,0.00,,,0.00,weatherlink.com 1.10,2013-01-01 11:14:00,
2013-01-01 03:29:00,31.7,27.0,30.23,West,262,0.0,1.0,84,0.00,,,0.00,weatherlink.com 1.10,2013-01-01 11:29:00,
2013-01-01 03:44:00,32.3,27.0,30.23,SSE,165,1.0,2.0,80,0.00,,,0.00,weatherlink.com 1.10,2013-01-01 11:44:00,
2013-01-01 03:59:00,31.9,26.0,30.23,SSE,160,0.0,1.0,80,0.00,,,0.00,weatherlink.com 1.10,2013-01-01 11:59:00,
2013-01-01 04:14:00,31.6,26.0,30.23,South,178,1.0,2.0,79,0.00,,,0.00,weatherlink.com 1.10,2013-01-01 12:14:00,
2013-01-01 04:29:00,32.3,26.0,30.22,NNE,19,1.0,4.0,78,0.00,,,0.00,weatherlink.com 1.10,2013-01-01 12:29:00,
2013-01-01 04:44:00,32.0,26.0,30.23,ESE,107,1.0,1.0,79,0.00,,,0.00,weatherlink.com 1.10,2013-01-01 12:44:00,
2013-01-01 04:59:00,31.7,27.0,30.22,NNE,27,0.0,3.0,81,0.00,,,0.00,weatherlink.com 1.10,2013-01-01 12:59:00,
2013-01-01 05:14:00,31.9,27.0,30.23,SE,138,0.0,1.0,82,0.00,,,0.00,weatherlink.com 1.10,2013-01-01 13:14:00,
2013-01-01 05:29:00,33.2,28.0,30.23,SE,131,0.0,3.0,81,0.00,,,0.00,weatherlink.com 1.10,2013-01-01 13:29:00,
2013-01-01 05:44:00,33.6,28.0,30.23,SE,135,0.0,3.0,79,0.00,,,0.00,weatherlink.com 1.10,2013-01-01 13:44:00,
2013-01-01 05:59:00,33.6,28.0,30.23,East,89,1.0,3.0,79,0.00,,,0.00,weatherlink.com 1.10,2013-01-01 13:59:00,
2013-01-01 06:14:00,34.0,28.0,30.23,ENE,60,1.0,3.0,77,0.00,,,0.00,weatherlink.com 1.10,2013-01-01 14:14:00,
2013-01-01 06:29:00,32.6,27.0,30.24,WNW,297,0.0,0.0,79,0.00,,,0.00,weatherlink.com 1.10,2013-01-01 14:29:00,
2013-01-01 06:44:00,33.0,27.0,30.24,SE,127,1.0,4.0,80,0.00,,,0.00,weatherlink.com 1.10,2013-01-01 14:44:00,
2013-01-01 06:59:00,34.1,28.0,30.23,WNW,293,1.0,3.0,77,0.00,,,0.00,weatherlink.com 1.10,2013-01-01 14:59:00,
2013-01-01 07:14:00,34.4,28.0,30.23,ENE,64,1.0,5.0,76,0.00,,,0.00,weatherlink.com 1.10,2013-01-01 15:14:00,
2013-01-01 07:29:00,34.5,28.0,30.23,East,86,1.0,5.0,77,0.00,,,0.00,weatherlink.com 1.10,2013-01-01 15:29:00,
2013-01-01 07:44:00,34.1,28.0,30.24,SSW,207,0.0,2.0,78,0.00,,,0.00,weatherlink.com 1.10,2013-01-01 15:44:00,
2013-01-01 07:59:00,33.9,29.0,30.24,North,358,1.0,5.0,81,0.00,,,0.00,weatherlink.com 1.10,2013-01-01 15:59:00,
2013-01-01 08:14:00,34.3,29.0,30.23,SSE,155,0.0,0.0,81,0.00,,,0.00,weatherlink.com 1.10,2013-01-01 16:14:00,
2013-01-01 08:29:00,35.3,28.0,30.23,North,5,1.0,4.0,74,0.00,,,0.00,weatherlink.com 1.10,2013-01-01 16:29:00,
2013-01-01 08:44:00,37.4,28.0,30.24,NE,36,1.0,6.0,69,0.00,,,0.00,weatherlink.com 1.10,2013-01-01 16:44:00,
2013-01-01 08:59:00,38.1,28.0,30.23,WNW,285,3.0,6.0,68,0.00,,,0.00,weatherlink.com 1.10,2013-01-01 16:59:00,
2013-01-01 09:14:00,38.7,29.0,30.24,East,98,2.0,7.0,67,0.00,,,0.00,weatherlink.com 1.10,2013-01-01 17:14:00,
2013-01-01 09:29:00,39.7,29.0,30.24,ENE,65,1.0,7.0,66,0.00,,,0.00,weatherlink.com 1.10,2013-01-01 17:29:00,
2013-01-01 09:44:00,41.5,30.0,30.25,ENE,75,1.0,4.0,64,0.00,,,0.00,weatherlink.com 1.10,2013-01-01 17:44:00,
2013-01-01 09:59:00,42.4,29.0,30.25,North,9,2.0,6.0,59,0.00,,,0.00,weatherlink.com 1.10,2013-01-01 17:59:00,
2013-01-01 10:15:00,43.1,29.0,30.26,NNW,341,1.0,7.0,57,0.00,,,0.00,weatherlink.com 1.10,2013-01-01 18:15:00,
2013-01-01 10:30:00,43.7,29.0,30.26,WNW,297,2.0,9.0,56,0.00,,,0.00,weatherlink.com 1.10,2013-01-01 18:30:00,
2013-01-01 10:45:00,44.6,29.0,30.27,NNE,22,5.0,8.0,55,0.00,,,0.00,weatherlink.com 1.10,2013-01-01 18:45:00,
2013-01-01 11:00:00,45.5,29.0,30.26,ENE,78,3.0,4.0,53,0.00,,,0.00,weatherlink.com 1.10,2013-01-01 19:00:00,
2013-01-01 11:15:00,45.8,29.0,30.25,North,6,5.0,6.0,52,0.00,,,0.00,weatherlink.com 1.10,2013-01-01 19:15:00,
2013-01-01 11:30:00,45.6,28.0,30.25,NW,319,5.0,8.0,51,0.00,,,0.00,weatherlink.com 1.10,2013-01-01 19:30:00,
2013-01-01 11:45:00,45.5,28.0,30.25,ENE,57,2.0,11.0,50,0.00,,,0.00,weatherlink.com 1.10,2013-01-01 19:45:00,
2013-01-01 12:00:00,46.0,28.0,30.25,NNE,30,2.0,7.0,49,0.00,,,0.00,weatherlink.com 1.10,2013-01-01 20:00:00,
2013-01-01 12:15:00,46.6,28.0,30.24,NNE,25,0.0,7.0,48,0.00,,,0.00,weatherlink.com 1.10,2013-01-01 20:15:00,
2013-01-01 12:30:00,47.2,27.0,30.23,NNE,13,3.0,8.0,45,0.00,,,0.00,weatherlink.com 1.10,2013-01-01 20:30:00,
2013-01-01 12:45:00,48.2,26.0,30.23,SW,214,3.0,5.0,43,0.00,,,0.00,weatherlink.com 1.10,2013-01-01 20:45:00,
2013-01-01 13:00:00,48.8,26.0,30.21,North,1,5.0,7.0,42,0.00,,,0.00,weatherlink.com 1.10,2013-01-01 21:00:00,
2013-01-01 13:15:00,49.1,27.0,30.21,North,358,2.0,6.0,42,0.00,,,0.00,weatherlink.com 1.10,2013-01-01 21:15:00,
2013-01-01 13:30:00,49.5,27.0,30.21,ENE,78,4.0,11.0,42,0.00,,,0.00,weatherlink.com 1.10,2013-01-01 21:30:00,
2013-01-01 13:45:00,49.8,28.0,30.21,WNW,299,0.0,4.0,44,0.00,,,0.00,weatherlink.com 1.10,2013-01-01 21:45:00,
2013-01-01 14:00:00,49.6,27.0,30.21,SW,233,1.0,7.0,42,0.00,,,0.00,weatherlink.com 1.10,2013-01-01 22:00:00,
2013-01-01 14:30:00,49.3,26.0,30.21,NW,314,2.0,7.0,41,0.00,,,0.00,weatherlink.com 1.10,2013-01-01 22:30:00,
2013-01-01 14:45:00,49.5,26.0,30.22,SE,129,1.0,10.0,40,0.00,,,0.00,weatherlink.com 1.10,2013-01-01 22:45:00,
2013-01-01 15:00:00,49.6,25.0,30.22,ENE,60,3.0,6.0,38,0.00,,,0.00,weatherlink.com 1.10,2013-01-01 23:00:00,
2013-01-01 15:16:00,49.3,24.0,30.21,ENE,78,0.0,6.0,38,0.00,,,0.00,weatherlink.com 1.10,2013-01-01 23:16:00,
2013-01-01 15:30:00,49.1,25.0,30.21,NE,43,0.0,4.0,39,0.00,,,0.00,weatherlink.com 1.10,2013-01-01 23:30:00,
2013-01-01 15:45:00,48.5,24.0,30.21,NE,39,0.0,3.0,38,0.00,,,0.00,weatherlink.com 1.10,2013-01-01 23:45:00,
2013-01-01 16:00:00,47.6,23.0,30.21,NNW,330,1.0,4.0,38,0.00,,,0.00,weatherlink.com 1.10,2013-01-02 00:00:00,
2013-01-01 16:15:00,47.2,23.0,30.21,NW,311,2.0,6.0,38,0.00,,,0.00,weatherlink.com 1.10,2013-01-02 00:15:00,
2013-01-01 16:30:00,46.5,23.0,30.21,WSW,240,0.0,2.0,39,0.00,,,0.00,weatherlink.com 1.10,2013-01-02 00:30:00,
2013-01-01 16:45:00,45.8,21.0,30.21,WSW,248,0.0,3.0,37,0.00,,,0.00,weatherlink.com 1.10,2013-01-02 00:45:00,
2013-01-01 17:00:00,44.1,21.0,30.20,SW,226,0.0,1.0,40,0.00,,,0.00,weatherlink.com 1.10,2013-01-02 01:00:00,
2013-01-01 17:18:00,43.5,21.0,30.20,WSW,253,0.0,2.0,41,0.00,,,0.00,weatherlink.com 1.10,2013-01-02 01:18:00,
2013-01-01 17:30:00,43.6,21.0,30.21,South,169,0.0,2.0,40,0.00,,,0.00,weatherlink.com 1.10,2013-01-02 01:30:00,
2013-01-01 17:45:00,44.0,22.0,30.20,SSW,194,0.0,3.0,42,0.00,,,0.00,weatherlink.com 1.10,2013-01-02 01:45:00,
2013-01-01 18:00:00,44.8,22.0,30.21,NNW,333,0.0,7.0,40,0.00,,,0.00,weatherlink.com 1.10,2013-01-02 02:00:00,
2013-01-01 18:15:00,45.5,21.0,30.21,NE,36,1.0,7.0,38,0.00,,,0.00,weatherlink.com 1.10,2013-01-02 02:15:00,
2013-01-01 18:30:00,44.9,21.0,30.21,NW,307,1.0,5.0,39,0.00,,,0.00,weatherlink.com 1.10,2013-01-02 02:30:00,
2013-01-01 18:45:00,44.2,21.0,30.21,WNW,287,3.0,5.0,40,0.00,,,0.00,weatherlink.com 1.10,2013-01-02 02:45:00,
2013-01-01 19:00:00,45.2,20.0,30.21,NNE,15,2.0,7.0,37,0.00,,,0.00,weatherlink.com 1.10,2013-01-02 03:00:00,
2013-01-01 19:15:00,45.3,21.0,30.21,ENE,71,1.0,4.0,38,0.00,,,0.00,weatherlink.com 1.10,2013-01-02 03:15:00,
2013-01-01 19:30:00,45.3,20.0,30.21,NE,56,2.0,5.0,37,0.00,,,0.00,weatherlink.com 1.10,2013-01-02 03:30:00,
2013-01-01 19:45:00,43.5,22.0,30.22,WSW,250,0.0,2.0,42,0.00,,,0.00,weatherlink.com 1.10,2013-01-02 03:45:00,
2013-01-01 20:00:00,41.6,20.0,30.22,NW,307,2.0,2.0,42,0.00,,,0.00,weatherlink.com 1.10,2013-01-02 04:00:00,
2013-01-01 20:15:00,40.9,21.0,30.22,SSE,160,0.0,0.0,45,0.00,,,0.00,weatherlink.com 1.10,2013-01-02 04:15:00,
2013-01-01 20:30:00,41.2,21.0,30.22,NNW,340,3.0,3.0,45,0.00,,,0.00,weatherlink.com 1.10,2013-01-02 04:30:00,
2013-01-01 20:45:00,43.1,21.0,30.22,WSW,252,0.0,3.0,42,0.00,,,0.00,weatherlink.com 1.10,2013-01-02 04:45:00,
2013-01-01 21:01:00,43.4,20.0,30.22,West,279,0.0,6.0,40,0.00,,,0.00,weatherlink.com 1.10,2013-01-02 05:01:00,
2013-01-01 21:16:00,44.0,20.0,30.22,ENE,78,3.0,5.0,39,0.00,,,0.00,weatherlink.com 1.10,2013-01-02 05:16:00,
2013-01-01 21:30:00,44.6,20.0,30.22,SE,146,2.0,6.0,37,0.00,,,0.00,weatherlink.com 1.10,2013-01-02 05:30:00,
2013-01-01 21:45:00,45.2,20.0,30.22,NNW,338,5.0,7.0,36,0.00,,,0.00,weatherlink.com 1.10,2013-01-02 05:45:00,
2013-01-01 22:01:00,44.5,20.0,30.23,WNW,283,1.0,2.0,37,0.00,,,0.00,weatherlink.com 1.10,2013-01-02 06:01:00,
2013-01-01 22:16:00,43.1,20.0,30.23,ENE,70,1.0,6.0,39,0.00,,,0.00,weatherlink.com 1.10,2013-01-02 06:16:00,
2013-01-01 22:31:00,42.5,21.0,30.23,South,185,0.0,2.0,42,0.00,,,0.00,weatherlink.com 1.10,2013-01-02 06:31:00,
2013-01-01 22:46:00,42.4,19.0,30.23,SE,131,1.0,4.0,39,0.00,,,0.00,weatherlink.com 1.10,2013-01-02 06:46:00,
2013-01-01 23:01:00,44.4,19.0,30.23,NNE,33,2.0,6.0,37,0.00,,,0.00,weatherlink.com 1.10,2013-01-02 07:01:00,
2013-01-01 23:16:00,44.0,20.0,30.23,NNE,20,0.0,4.0,38,0.00,,,0.00,weatherlink.com 1.10,2013-01-02 07:16:00,
2013-01-01 23:31:00,42.3,19.0,30.24,SW,232,0.0,2.0,40,0.00,,,0.00,weatherlink.com 1.10,2013-01-02 07:31:00,
2013-01-01 23:46:00,41.7,20.0,30.24,SE,132,1.0,2.0,42,0.00,,,0.00,weatherlink.com 1.10,2013-01-02 07:46:00,